createdAt,value
2022-08-01T00:00:32.261Z,100
2022-08-01T00:01:35.390Z,100
2022-08-01T00:02:39.204Z,100
2022-08-01T00:03:42.419Z,100
2022-08-01T00:04:45.050Z,100
2022-08-01T00:05:47.687Z,100
2022-08-01T00:06:50.367Z,100
2022-08-01T00:07:52.145Z,100
2022-08-01T00:08:55.338Z,100
2022-08-01T00:09:58.063Z,100
2022-08-01T00:11:03.795Z,100
2022-08-01T00:12:06.481Z,100
2022-08-01T00:13:11.634Z,100
2022-08-01T00:14:13.777Z,100
2022-08-01T00:15:15.857Z,100
2022-08-01T00:16:18.485Z,100
2022-08-01T00:17:21.189Z,100
2022-08-01T00:18:24.367Z,100
2022-08-01T00:19:26.802Z,100
2022-08-01T00:20:30.833Z,100
2022-08-01T00:21:33.061Z,100
2022-08-01T00:22:35.298Z,100
2022-08-01T00:23:37.649Z,100
2022-08-01T00:24:40.333Z,100
2022-08-01T00:25:42.944Z,100
2022-08-01T00:26:45.838Z,100
2022-08-01T00:27:48.941Z,100
2022-08-01T00:28:52.644Z,100
2022-08-01T00:30:15.964Z,100
2022-08-01T00:31:18.737Z,100
2022-08-01T00:32:24.991Z,100
2022-08-01T00:33:28.176Z,100
2022-08-01T00:34:31.138Z,100
2022-08-01T00:35:33.990Z,100
2022-08-01T00:36:36.967Z,100
2022-08-01T00:37:40.144Z,100
2022-08-01T00:38:42.836Z,100
2022-08-01T00:39:45.783Z,100
2022-08-01T00:40:47.804Z,100
2022-08-01T00:42:00.824Z,99
2022-08-01T00:43:04.305Z,99
2022-08-01T00:44:06.431Z,99
2022-08-01T00:45:08.726Z,99
2022-08-01T00:46:11.953Z,99
2022-08-01T00:47:14.850Z,99
2022-08-01T00:48:16.915Z,99
2022-08-01T00:49:20.204Z,99
2022-08-01T00:50:25.744Z,100
2022-08-01T00:51:27.545Z,99
2022-08-01T00:52:30.714Z,99
2022-08-01T00:53:53.528Z,99
2022-08-01T00:55:00.440Z,99
2022-08-01T00:56:03.349Z,100
2022-08-01T00:57:11.853Z,99
2022-08-01T00:58:19.213Z,99
2022-08-01T00:59:26.010Z,99
2022-08-01T01:00:31.012Z,99
2022-08-01T01:01:57.587Z,100
2022-08-01T01:03:03.048Z,99
2022-08-01T01:04:09.626Z,100
2022-08-01T01:05:11.917Z,100
2022-08-01T01:06:14.608Z,100
2022-08-01T01:07:17.249Z,100
2022-08-01T01:08:19.387Z,100
2022-08-01T01:09:22.132Z,100
2022-08-01T01:10:24.485Z,100
2022-08-01T01:11:27.178Z,100
2022-08-01T01:12:29.814Z,100
2022-08-01T01:13:51.801Z,100
2022-08-01T01:14:54.935Z,100
2022-08-01T01:15:57.562Z,100
2022-08-01T01:17:00.421Z,100
2022-08-01T01:18:03.269Z,100
2022-08-01T01:19:06.112Z,100
2022-08-01T01:20:08.201Z,100
2022-08-01T01:21:12.912Z,100
2022-08-01T01:22:15.197Z,100
2022-08-01T01:23:17.834Z,100
2022-08-01T01:24:20.460Z,100
2022-08-01T01:25:23.157Z,100
2022-08-01T01:26:26.285Z,100
2022-08-01T01:27:29.275Z,100
2022-08-01T01:28:32.739Z,100
2022-08-01T01:30:02.318Z,100
2022-08-01T01:31:04.888Z,100
2022-08-01T01:32:09.499Z,100
2022-08-01T01:33:12.197Z,100
2022-08-01T01:34:14.824Z,100
2022-08-01T01:35:17.459Z,100
2022-08-01T01:36:20.392Z,100
2022-08-01T01:37:23.523Z,100
2022-08-01T01:38:25.932Z,100
2022-08-01T01:39:28.765Z,100
2022-08-01T01:40:31.888Z,100
2022-08-01T01:41:34.241Z,100
2022-08-01T01:42:37.090Z,100
2022-08-01T01:43:40.048Z,100
2022-08-01T01:44:42.967Z,100
2022-08-01T01:45:45.397Z,100
2022-08-01T01:46:48.304Z,100
2022-08-01T01:47:50.383Z,100
2022-08-01T01:48:53.311Z,100
2022-08-01T01:49:56.323Z,100
2022-08-01T01:50:59.019Z,100
2022-08-01T01:52:04.678Z,100
2022-08-01T01:53:16.385Z,100
2022-08-01T01:54:19.517Z,100
2022-08-01T01:55:22.360Z,100
2022-08-01T01:56:24.699Z,100
2022-08-01T01:57:27.322Z,100
2022-08-01T01:58:30.301Z,100
2022-08-01T01:59:33.211Z,100
2022-08-01T02:00:36.117Z,100
2022-08-01T02:02:09.795Z,100
2022-08-01T02:03:14.844Z,100
2022-08-01T02:04:17.812Z,100
2022-08-01T02:05:21.031Z,100
2022-08-01T02:06:23.446Z,100
2022-08-01T02:07:26.015Z,100
2022-08-01T02:08:33.098Z,100
2022-08-01T02:09:35.725Z,100
2022-08-01T02:10:38.627Z,100
2022-08-01T02:12:09.989Z,100
2022-08-01T02:13:13.954Z,100
2022-08-01T02:14:16.668Z,100
2022-08-01T02:15:19.283Z,100
2022-08-01T02:16:21.896Z,100
2022-08-01T02:17:24.798Z,100
2022-08-01T02:18:27.507Z,100
2022-08-01T02:19:30.573Z,100
2022-08-01T02:20:32.914Z,100
2022-08-01T02:21:35.046Z,100
2022-08-01T02:22:37.594Z,100
2022-08-01T02:23:40.217Z,100
2022-08-01T02:24:42.838Z,100
2022-08-01T02:26:12.555Z,100
2022-08-01T02:27:15.662Z,100
2022-08-01T02:28:19.154Z,100
2022-08-01T02:29:21.855Z,100
2022-08-01T02:30:25.037Z,100
2022-08-01T02:31:27.176Z,100
2022-08-01T02:32:30.083Z,100
2022-08-01T02:33:32.434Z,100
2022-08-01T02:34:35.717Z,100
2022-08-01T02:36:34.084Z,100
2022-08-01T02:37:36.924Z,100
2022-08-01T02:38:46.818Z,100
2022-08-01T02:39:49.165Z,100
2022-08-01T02:40:52.075Z,100
2022-08-01T02:41:55.028Z,100
2022-08-01T02:42:57.658Z,100
2022-08-01T02:43:59.730Z,100
2022-08-01T02:45:02.608Z,100
2022-08-01T02:46:04.917Z,100
2022-08-01T02:47:07.270Z,100
2022-08-01T02:48:10.441Z,100
2022-08-01T02:49:14.024Z,100
2022-08-01T02:50:17.108Z,100
2022-08-01T02:51:19.780Z,100
2022-08-01T02:52:22.618Z,100
2022-08-01T02:53:45.657Z,100
2022-08-01T02:54:48.509Z,100
2022-08-01T02:55:51.146Z,100
2022-08-01T02:56:54.973Z,100
2022-08-01T02:58:02.846Z,100
2022-08-01T02:59:07.013Z,100
2022-08-01T03:00:10.712Z,100
2022-08-01T03:01:16.153Z,100
2022-08-01T03:02:18.629Z,100
2022-08-01T03:03:21.780Z,100
2022-08-01T03:04:24.124Z,100
2022-08-01T03:05:26.721Z,100
2022-08-01T03:06:29.130Z,100
2022-08-01T03:07:41.854Z,100
2022-08-01T03:08:44.990Z,100
2022-08-01T03:09:47.895Z,100
2022-08-01T03:10:50.809Z,100
2022-08-01T03:11:53.498Z,100
2022-08-01T03:12:56.946Z,100
2022-08-01T03:13:59.263Z,100
2022-08-01T03:15:02.246Z,100
2022-08-01T03:16:05.434Z,100
2022-08-01T03:17:08.120Z,100
2022-08-01T03:18:10.797Z,100
2022-08-01T03:19:13.763Z,100
2022-08-01T03:20:16.670Z,100
2022-08-01T03:21:20.069Z,100
2022-08-01T03:22:22.420Z,100
2022-08-01T03:23:39.607Z,100
2022-08-01T03:24:42.176Z,100
2022-08-01T03:25:45.074Z,100
2022-08-01T03:26:47.768Z,100
2022-08-01T03:27:50.947Z,100
2022-08-01T03:28:53.514Z,100
2022-08-01T03:29:55.594Z,100
2022-08-01T03:30:58.237Z,100
2022-08-01T03:32:01.815Z,100
2022-08-01T03:33:05.190Z,100
2022-08-01T03:34:08.148Z,100
2022-08-01T03:35:10.714Z,100
2022-08-01T03:36:13.288Z,100
2022-08-01T03:37:15.930Z,100
2022-08-01T03:38:19.394Z,100
2022-08-01T03:39:22.665Z,100
2022-08-01T03:40:24.970Z,100
2022-08-01T03:41:27.248Z,100
2022-08-01T03:42:29.604Z,100
2022-08-01T03:43:32.477Z,100
2022-08-01T03:44:35.109Z,100
2022-08-01T03:45:37.528Z,100
2022-08-01T03:46:40.097Z,100
2022-08-01T03:47:46.303Z,100
2022-08-01T03:48:49.944Z,100
2022-08-01T03:49:52.449Z,100
2022-08-01T03:50:55.977Z,100
2022-08-01T03:51:58.606Z,100
2022-08-01T03:53:00.963Z,100
2022-08-01T03:54:03.532Z,100
2022-08-01T03:55:05.961Z,100
2022-08-01T03:56:09.141Z,100
2022-08-01T03:57:38.177Z,100
2022-08-01T03:58:41.587Z,100
2022-08-01T03:59:44.211Z,100
2022-08-01T04:00:47.120Z,100
2022-08-01T04:01:50.297Z,100
2022-08-01T04:02:52.557Z,100
2022-08-01T04:03:55.736Z,100
2022-08-01T04:04:59.132Z,100
2022-08-01T04:06:03.181Z,100
2022-08-01T04:07:05.260Z,100
2022-08-01T04:08:07.962Z,100
2022-08-01T04:09:14.825Z,100
2022-08-01T04:10:17.458Z,100
2022-08-01T04:11:20.646Z,100
2022-08-01T04:12:23.774Z,100
2022-08-01T04:13:39.029Z,100
2022-08-01T04:14:47.097Z,100
2022-08-01T04:15:49.720Z,100
2022-08-01T04:16:52.561Z,100
2022-08-01T04:17:55.233Z,100
2022-08-01T04:18:58.189Z,100
2022-08-01T04:20:01.595Z,100
2022-08-01T04:21:04.261Z,100
2022-08-01T04:22:08.564Z,100
2022-08-01T04:23:11.572Z,100
2022-08-01T04:24:14.196Z,100
2022-08-01T04:25:17.042Z,100
2022-08-01T04:26:19.670Z,100
2022-08-01T04:27:53.640Z,100
2022-08-01T04:28:56.764Z,100
2022-08-01T04:29:59.960Z,100
2022-08-01T04:31:03.470Z,100
2022-08-01T04:32:07.599Z,100
2022-08-01T04:33:10.770Z,100
2022-08-01T04:34:13.072Z,100
2022-08-01T04:36:05.730Z,100
2022-08-01T04:37:08.306Z,100
2022-08-01T04:38:11.297Z,100
2022-08-01T04:39:14.211Z,100
2022-08-01T04:40:17.108Z,100
2022-08-01T04:41:19.732Z,100
2022-08-01T04:42:34.589Z,100
2022-08-01T04:43:37.507Z,100
2022-08-01T04:44:40.736Z,100
2022-08-01T04:45:43.698Z,100
2022-08-01T04:46:46.917Z,100
2022-08-01T04:47:49.565Z,100
2022-08-01T04:48:52.478Z,100
2022-08-01T04:49:55.286Z,100
2022-08-01T04:50:57.455Z,100
2022-08-01T04:51:59.814Z,100
2022-08-01T04:53:03.928Z,100
2022-08-01T04:54:06.632Z,100
2022-08-01T04:55:08.927Z,100
2022-08-01T04:56:11.558Z,100
2022-08-01T04:57:14.460Z,100
2022-08-01T04:58:19.891Z,100
2022-08-01T04:59:21.952Z,100
2022-08-01T05:00:24.864Z,100
2022-08-01T05:01:28.522Z,100
2022-08-01T05:02:31.616Z,100
2022-08-01T05:03:40.370Z,100
2022-08-01T05:04:43.839Z,100
2022-08-01T05:05:46.201Z,100
2022-08-01T05:06:49.188Z,100
2022-08-01T05:07:51.822Z,100
2022-08-01T05:08:54.277Z,100
2022-08-01T05:09:57.178Z,100
2022-08-01T05:11:00.089Z,100
2022-08-01T05:12:03.003Z,100
2022-08-01T05:13:06.767Z,100
2022-08-01T05:14:08.901Z,100
2022-08-01T05:15:16.303Z,100
2022-08-01T05:16:18.937Z,100
2022-08-01T05:17:21.264Z,100
2022-08-01T05:18:29.301Z,100
2022-08-01T05:19:34.960Z,100
2022-08-01T05:20:37.317Z,100
2022-08-01T05:21:39.975Z,100
2022-08-01T05:22:42.269Z,100
2022-08-01T05:23:44.929Z,100
2022-08-01T05:24:51.265Z,100
2022-08-01T05:25:59.753Z,100
2022-08-01T05:27:04.354Z,100
2022-08-01T05:28:09.393Z,100
2022-08-01T05:29:12.067Z,100
2022-08-01T05:30:14.966Z,100
2022-08-01T05:31:17.565Z,100
2022-08-01T05:32:20.192Z,100
2022-08-01T05:33:22.591Z,100
2022-08-01T05:34:25.780Z,100
2022-08-01T05:35:50.491Z,100
2022-08-01T05:36:58.495Z,100
2022-08-01T05:38:01.390Z,100
2022-08-01T05:39:03.396Z,100
2022-08-01T05:40:06.249Z,100
2022-08-01T05:41:09.239Z,100
2022-08-01T05:42:11.868Z,100
2022-08-01T05:43:14.217Z,100
2022-08-01T05:44:16.834Z,100
2022-08-01T05:45:19.733Z,100
2022-08-01T05:46:28.180Z,100
2022-08-01T05:47:31.020Z,100
2022-08-01T05:48:33.908Z,100
2022-08-01T05:49:36.804Z,100
2022-08-01T05:50:39.220Z,100
2022-08-01T05:51:42.114Z,100
2022-08-01T05:52:44.744Z,100
2022-08-01T05:53:47.374Z,100
2022-08-01T05:54:50.219Z,100
2022-08-01T05:55:52.846Z,100
2022-08-01T05:56:55.479Z,100
2022-08-01T05:57:58.737Z,100
2022-08-01T05:59:01.711Z,100
2022-08-01T06:00:04.086Z,100
2022-08-01T06:01:06.444Z,100
2022-08-01T06:02:11.804Z,100
2022-08-01T06:03:14.518Z,100
2022-08-01T06:04:17.361Z,100
2022-08-01T06:05:19.916Z,100
2022-08-01T06:06:27.074Z,100
2022-08-01T06:07:30.292Z,100
2022-08-01T06:08:32.725Z,100
2022-08-01T06:09:35.577Z,100
2022-08-01T06:10:38.486Z,100
2022-08-01T06:11:41.677Z,100
2022-08-01T06:12:44.810Z,100
2022-08-01T06:13:49.845Z,100
2022-08-01T06:14:53.040Z,100
2022-08-01T06:15:56.007Z,100
2022-08-01T06:16:58.586Z,100
2022-08-01T06:18:01.464Z,100
2022-08-01T06:19:04.096Z,100
2022-08-01T06:20:07.290Z,100
2022-08-01T06:21:09.993Z,100
2022-08-01T06:22:13.057Z,100
2022-08-01T06:23:33.904Z,100
2022-08-01T06:24:36.750Z,100
2022-08-01T06:25:39.603Z,100
2022-08-01T06:26:42.516Z,100
2022-08-01T06:27:45.922Z,100
2022-08-01T06:28:47.935Z,100
2022-08-01T06:29:55.440Z,100
2022-08-01T06:30:58.642Z,100
2022-08-01T06:32:01.308Z,100
2022-08-01T06:33:03.599Z,100
2022-08-01T06:34:05.894Z,100
2022-08-01T06:35:08.519Z,100
2022-08-01T06:36:11.376Z,100
2022-08-01T06:37:14.598Z,100
2022-08-01T06:38:17.512Z,100
2022-08-01T06:39:19.251Z,100
2022-08-01T06:40:21.893Z,100
2022-08-01T06:41:24.868Z,100
2022-08-01T06:42:27.781Z,100
2022-08-01T06:43:30.410Z,100
2022-08-01T06:44:32.496Z,100
2022-08-01T06:45:34.857Z,100
2022-08-01T06:46:37.026Z,100
2022-08-01T06:47:39.665Z,100
2022-08-01T06:48:41.963Z,100
2022-08-01T06:49:45.156Z,100
2022-08-01T06:50:48.342Z,100
2022-08-01T06:51:51.193Z,100
2022-08-01T06:52:53.752Z,100
2022-08-01T06:53:56.308Z,100
2022-08-01T06:54:58.315Z,100
2022-08-01T06:56:01.379Z,100
2022-08-01T06:57:04.270Z,100
2022-08-01T06:58:06.610Z,100
2022-08-01T06:59:09.720Z,100
2022-08-01T07:00:12.356Z,100
2022-08-01T07:01:16.313Z,100
2022-08-01T07:02:19.798Z,100
2022-08-01T07:03:22.993Z,100
2022-08-01T07:04:25.844Z,100
2022-08-01T07:05:28.468Z,100
2022-08-01T07:06:31.658Z,100
2022-08-01T07:07:34.290Z,100
2022-08-01T07:08:41.410Z,100
2022-08-01T07:09:43.435Z,100
2022-08-01T07:10:46.902Z,100
2022-08-01T07:11:48.978Z,100
2022-08-01T07:12:51.337Z,100
2022-08-01T07:13:53.397Z,100
2022-08-01T07:14:55.735Z,100
2022-08-01T07:15:58.922Z,100
2022-08-01T07:17:02.055Z,100
2022-08-01T07:18:05.037Z,100
2022-08-01T07:19:07.893Z,100
2022-08-01T07:20:11.368Z,100
2022-08-01T07:21:45.439Z,100
2022-08-01T07:22:57.387Z,100
2022-08-01T07:24:16.005Z,100
2022-08-01T07:25:24.755Z,100
2022-08-01T07:26:27.936Z,100
2022-08-01T07:27:30.118Z,100
2022-08-01T07:28:32.696Z,100
2022-08-01T07:29:35.702Z,100
2022-08-01T07:30:38.391Z,100
2022-08-01T07:31:41.554Z,100
2022-08-01T07:32:43.885Z,100
2022-08-01T07:33:50.416Z,100
2022-08-01T07:34:52.854Z,100
2022-08-01T07:35:55.723Z,100
2022-08-01T07:36:58.580Z,100
2022-08-01T07:38:01.566Z,100
2022-08-01T07:39:04.209Z,100
2022-08-01T07:40:06.834Z,100
2022-08-01T07:41:09.153Z,100
2022-08-01T07:42:12.519Z,100
2022-08-01T07:43:17.268Z,100
2022-08-01T07:44:20.246Z,100
2022-08-01T07:45:22.989Z,100
2022-08-01T07:46:25.936Z,100
2022-08-01T07:47:29.128Z,100
2022-08-01T07:48:31.201Z,100
2022-08-01T07:49:41.749Z,100
2022-08-01T07:50:43.951Z,100
2022-08-01T07:52:15.526Z,100
2022-08-01T07:53:19.839Z,100
2022-08-01T07:54:35.568Z,100
2022-08-01T07:55:38.750Z,99
2022-08-01T07:56:41.656Z,100
2022-08-01T07:57:43.676Z,100
2022-08-01T07:58:46.362Z,100
2022-08-01T07:59:49.415Z,99
2022-08-01T08:00:51.817Z,99
2022-08-01T08:01:55.102Z,100
2022-08-01T08:02:58.169Z,99
2022-08-01T08:04:00.835Z,100
2022-08-01T08:05:03.471Z,99
2022-08-01T08:06:07.489Z,99
2022-08-01T08:07:10.885Z,99
2022-08-01T08:08:13.517Z,98
2022-08-01T08:09:16.372Z,99
2022-08-01T08:10:19.007Z,99
2022-08-01T08:11:21.641Z,100
2022-08-01T08:12:30.684Z,100
2022-08-01T08:13:32.730Z,100
2022-08-01T08:14:37.024Z,100
2022-08-01T08:15:41.266Z,100
2022-08-01T08:16:50.597Z,100
2022-08-01T08:17:56.577Z,99
2022-08-01T08:18:58.719Z,99
2022-08-01T08:20:01.906Z,99
2022-08-01T08:21:08.056Z,100
2022-08-01T08:22:11.562Z,100
2022-08-01T08:23:45.078Z,99
2022-08-01T08:24:48.142Z,99
2022-08-01T08:25:50.827Z,99
2022-08-01T08:26:53.608Z,99
2022-08-01T08:27:56.185Z,99
2022-08-01T08:28:59.735Z,99
2022-08-01T08:30:02.906Z,100
2022-08-01T08:31:06.161Z,100
2022-08-01T08:32:10.643Z,100
2022-08-01T08:33:14.646Z,99
2022-08-01T08:34:17.561Z,100
2022-08-01T08:35:54.955Z,100
2022-08-01T08:36:59.906Z,100
2022-08-01T08:38:04.488Z,100
2022-08-01T08:39:20.983Z,99
2022-08-01T08:40:24.000Z,100
2022-08-01T08:41:26.131Z,100
2022-08-01T08:42:41.024Z,100
2022-08-01T08:43:44.603Z,100
2022-08-01T08:44:47.794Z,100
2022-08-01T08:46:01.334Z,100
2022-08-01T08:47:03.921Z,99
2022-08-01T08:48:06.210Z,97
2022-08-01T08:49:09.929Z,96
2022-08-01T08:50:13.578Z,96
2022-08-01T08:51:16.251Z,97
2022-08-01T08:52:19.122Z,97
2022-08-01T08:53:21.725Z,97
2022-08-01T08:54:32.893Z,97
2022-08-01T08:55:57.460Z,96
2022-08-01T08:57:00.323Z,96
2022-08-01T08:58:02.955Z,97
2022-08-01T08:59:05.652Z,97
2022-08-01T09:00:08.165Z,97
2022-08-01T09:01:10.859Z,99
2022-08-01T09:02:15.542Z,99
2022-08-01T09:03:18.737Z,98
2022-08-01T09:04:27.548Z,98
2022-08-01T09:05:40.529Z,96
2022-08-01T09:06:43.601Z,97
2022-08-01T09:07:46.552Z,97
2022-08-01T09:08:49.184Z,98
2022-08-01T09:09:52.519Z,97
2022-08-01T09:10:55.918Z,96
2022-08-01T09:11:59.642Z,97
2022-08-01T09:13:02.632Z,96
2022-08-01T09:14:05.534Z,94
2022-08-01T09:15:07.587Z,93
2022-08-01T09:16:10.249Z,95
2022-08-01T09:17:13.202Z,93
2022-08-01T09:18:16.445Z,95
2022-08-01T09:19:42.678Z,95
2022-08-01T09:20:45.764Z,94
2022-08-01T09:21:48.122Z,94
2022-08-01T09:22:51.028Z,92
2022-08-01T09:23:56.038Z,93
2022-08-01T09:24:58.671Z,94
2022-08-01T09:26:01.048Z,93
2022-08-01T09:27:05.761Z,92
2022-08-01T09:28:09.452Z,92
2022-08-01T09:29:41.358Z,93
2022-08-01T09:31:04.360Z,93
2022-08-01T09:32:17.696Z,91
2022-08-01T09:33:23.389Z,91
2022-08-01T09:34:26.028Z,90
2022-08-01T09:35:44.274Z,90
2022-08-01T09:36:47.172Z,92
2022-08-01T09:37:50.301Z,93
2022-08-01T09:38:53.352Z,94
2022-08-01T09:39:56.274Z,94
2022-08-01T09:41:01.863Z,93
2022-08-01T09:42:07.435Z,93
2022-08-01T09:43:15.281Z,93
2022-08-01T09:44:18.373Z,94
2022-08-01T09:45:59.393Z,92
2022-08-01T09:47:11.056Z,93
2022-08-01T09:48:18.076Z,94
2022-08-01T09:49:21.667Z,94
2022-08-01T09:50:24.747Z,93
2022-08-01T09:52:02.031Z,93
2022-08-01T09:53:06.779Z,93
2022-08-01T09:54:11.475Z,93
2022-08-01T09:55:14.175Z,91
2022-08-01T09:56:17.575Z,90
2022-08-01T09:57:20.764Z,91
2022-08-01T09:58:24.010Z,92
2022-08-01T10:00:02.036Z,91
2022-08-01T10:01:07.612Z,90
2022-08-01T10:02:10.241Z,90
2022-08-01T10:03:13.715Z,90
2022-08-01T10:04:19.767Z,90
2022-08-01T10:05:37.489Z,90
2022-08-01T10:06:51.454Z,91
2022-08-01T10:07:59.176Z,92
2022-08-01T10:09:05.766Z,92
2022-08-01T10:10:14.929Z,92
2022-08-01T10:11:18.300Z,91
2022-08-01T10:12:21.894Z,91
2022-08-01T10:13:37.188Z,91
2022-08-01T10:14:50.662Z,91
2022-08-01T10:15:53.880Z,90
2022-08-01T10:17:09.325Z,90
2022-08-01T10:18:27.872Z,88
2022-08-01T10:19:34.014Z,89
2022-08-01T10:20:39.314Z,89
2022-08-01T10:22:01.307Z,91
2022-08-01T10:23:07.414Z,91
2022-08-01T10:24:11.790Z,91
2022-08-01T10:25:15.153Z,91
2022-08-01T10:26:18.447Z,88
2022-08-01T10:27:40.570Z,89
2022-08-01T10:28:45.519Z,90
2022-08-01T10:30:24.510Z,88
2022-08-01T10:31:31.848Z,86
2022-08-01T10:32:36.501Z,87
2022-08-01T10:33:57.980Z,88
2022-08-01T10:35:16.224Z,87
2022-08-01T10:36:51.072Z,86
2022-08-01T10:37:55.951Z,87
2022-08-01T10:38:58.657Z,88
2022-08-01T10:40:32.195Z,88
2022-08-01T10:41:43.306Z,86
2022-08-01T10:42:46.597Z,86
2022-08-01T10:43:50.470Z,86
2022-08-01T10:44:53.530Z,87
2022-08-01T10:45:56.973Z,88
2022-08-01T10:47:00.834Z,86
2022-08-01T10:48:05.528Z,85
2022-08-01T10:49:09.130Z,84
2022-08-01T10:50:26.483Z,85
2022-08-01T10:51:55.559Z,82
2022-08-01T10:53:23.522Z,84
2022-08-01T10:54:53.878Z,84
2022-08-01T10:56:03.164Z,86
2022-08-01T10:57:09.907Z,85
2022-08-01T10:58:18.123Z,83
2022-08-01T11:00:02.361Z,82
2022-08-01T11:01:10.515Z,84
2022-08-01T11:02:13.310Z,83
2022-08-01T11:03:16.935Z,85
2022-08-01T11:04:21.252Z,86
2022-08-01T11:05:34.234Z,84
2022-08-01T11:06:36.643Z,83
2022-08-01T11:07:39.562Z,83
2022-08-01T11:08:47.086Z,84
2022-08-01T11:09:53.268Z,84
2022-08-01T11:10:56.352Z,81
2022-08-01T11:12:01.854Z,81
2022-08-01T11:13:09.321Z,81
2022-08-01T11:14:13.723Z,82
2022-08-01T11:15:31.846Z,83
2022-08-01T11:16:34.923Z,82
2022-08-01T11:17:43.616Z,81
2022-08-01T11:18:49.369Z,81
2022-08-01T11:19:56.086Z,82
2022-08-01T11:22:02.569Z,81
2022-08-01T11:23:05.870Z,81
2022-08-01T11:24:11.300Z,80
2022-08-01T11:25:18.940Z,81
2022-08-01T11:26:30.846Z,81
2022-08-01T11:27:37.307Z,81
2022-08-01T11:29:22.978Z,81
2022-08-01T11:30:27.091Z,80
2022-08-01T11:31:29.694Z,79
2022-08-01T11:33:12.815Z,80
2022-08-01T11:34:16.800Z,79
2022-08-01T11:35:20.013Z,79
2022-08-01T11:37:13.917Z,77
2022-08-01T11:38:19.402Z,77
2022-08-01T11:39:22.587Z,75
2022-08-01T11:40:27.490Z,74
2022-08-01T11:41:39.967Z,74
2022-08-01T11:42:42.427Z,76
2022-08-01T11:43:45.357Z,76
2022-08-01T11:44:48.745Z,75
2022-08-01T11:45:55.254Z,76
2022-08-01T11:47:00.590Z,75
2022-08-01T11:48:03.659Z,74
2022-08-01T11:49:08.678Z,73
2022-08-01T11:50:12.934Z,73
2022-08-01T11:51:26.795Z,73
2022-08-01T11:52:31.928Z,75
2022-08-01T11:53:41.418Z,72
2022-08-01T11:54:44.941Z,74
2022-08-01T11:55:53.313Z,73
2022-08-01T11:56:56.510Z,71
2022-08-01T11:58:00.695Z,72
2022-08-01T11:59:15.476Z,72
2022-08-01T12:00:25.533Z,74
2022-08-01T12:01:29.751Z,71
2022-08-01T12:02:32.397Z,71
2022-08-01T12:03:36.285Z,70
2022-08-01T12:04:38.375Z,73
2022-08-01T12:05:44.905Z,72
2022-08-01T12:06:54.401Z,68
2022-08-01T12:07:56.449Z,68
2022-08-01T12:08:59.641Z,66
2022-08-01T12:10:02.303Z,65
2022-08-01T12:11:08.120Z,68
2022-08-01T12:12:10.465Z,66
2022-08-01T12:13:13.652Z,67
2022-08-01T12:14:16.852Z,68
2022-08-01T12:15:20.039Z,68
2022-08-01T12:16:34.104Z,70
2022-08-01T12:17:37.320Z,65
2022-08-01T12:18:40.182Z,65
2022-08-01T12:19:42.574Z,67
2022-08-01T12:20:57.802Z,65
2022-08-01T12:22:00.381Z,66
2022-08-01T12:23:03.224Z,66
2022-08-01T12:24:06.500Z,67
2022-08-01T12:25:09.133Z,66
2022-08-01T12:26:33.342Z,64
2022-08-01T12:27:36.193Z,64
2022-08-01T12:28:39.388Z,63
2022-08-01T12:29:42.288Z,63
2022-08-01T12:30:44.918Z,62
2022-08-01T12:31:47.608Z,64
2022-08-01T12:32:50.782Z,62
2022-08-01T12:33:53.611Z,62
2022-08-01T12:34:59.000Z,62
2022-08-01T12:36:02.536Z,61
2022-08-01T12:37:06.265Z,60
2022-08-01T12:38:09.713Z,60
2022-08-01T12:39:12.353Z,59
2022-08-01T12:40:15.323Z,59
2022-08-01T12:41:17.969Z,60
2022-08-01T12:42:20.872Z,59
2022-08-01T12:43:30.114Z,62
2022-08-01T12:44:32.452Z,59
2022-08-01T12:45:35.357Z,56
2022-08-01T12:46:45.351Z,57
2022-08-01T12:47:47.979Z,57
2022-08-01T12:48:51.464Z,55
2022-08-01T12:49:54.509Z,55
2022-08-01T12:50:57.137Z,57
2022-08-01T12:51:59.853Z,55
2022-08-01T12:53:02.489Z,56
2022-08-01T12:54:05.073Z,56
2022-08-01T12:55:10.924Z,54
2022-08-01T12:56:14.119Z,55
2022-08-01T12:57:17.630Z,56
2022-08-01T12:58:20.472Z,58
2022-08-01T12:59:23.940Z,57
2022-08-01T13:00:26.673Z,56
2022-08-01T13:01:29.915Z,55
2022-08-01T13:02:32.703Z,52
2022-08-01T13:03:35.665Z,52
2022-08-01T13:04:38.662Z,53
2022-08-01T13:05:41.490Z,53
2022-08-01T13:06:44.600Z,51
2022-08-01T13:07:47.129Z,51
2022-08-01T13:08:50.308Z,51
2022-08-01T13:09:52.628Z,51
2022-08-01T13:10:55.236Z,51
2022-08-01T13:12:07.438Z,51
2022-08-01T13:13:29.865Z,50
2022-08-01T13:14:32.722Z,49
2022-08-01T13:15:35.145Z,50
2022-08-01T13:16:58.397Z,50
2022-08-01T13:18:00.972Z,47
2022-08-01T13:19:03.340Z,46
2022-08-01T13:20:05.772Z,45
2022-08-01T13:21:08.223Z,44
2022-08-01T13:22:12.273Z,47
2022-08-01T13:24:03.798Z,47
2022-08-01T13:25:06.502Z,43
2022-08-01T13:26:09.415Z,42
2022-08-01T13:27:11.775Z,42
2022-08-01T13:28:14.071Z,43
2022-08-01T13:29:16.714Z,43
2022-08-01T13:30:19.964Z,42
2022-08-01T13:31:22.539Z,41
2022-08-01T13:32:33.302Z,41
2022-08-01T13:33:39.386Z,41
2022-08-01T13:34:42.164Z,41
2022-08-01T13:35:45.644Z,41
2022-08-01T13:36:50.669Z,41
2022-08-01T13:37:53.582Z,40
2022-08-01T13:38:56.215Z,41
2022-08-01T13:39:58.850Z,41
2022-08-01T13:41:01.472Z,42
2022-08-01T13:42:06.256Z,45
2022-08-01T13:43:10.066Z,46
2022-08-01T13:44:12.198Z,43
2022-08-01T13:45:16.414Z,45
2022-08-01T13:46:30.147Z,46
2022-08-01T13:47:34.850Z,45
2022-08-01T13:48:38.018Z,45
2022-08-01T13:49:42.970Z,43
2022-08-01T13:51:22.830Z,43
2022-08-01T13:52:25.397Z,44
2022-08-01T13:53:28.094Z,44
2022-08-01T13:54:31.008Z,45
2022-08-01T13:55:36.760Z,43
2022-08-01T13:56:39.179Z,42
2022-08-01T13:57:41.544Z,41
2022-08-01T13:58:45.189Z,43
2022-08-01T13:59:48.095Z,42
2022-08-01T14:00:51.111Z,42
2022-08-01T14:01:54.136Z,42
2022-08-01T14:02:57.049Z,43
2022-08-01T14:03:59.681Z,43
2022-08-01T14:05:02.585Z,43
2022-08-01T14:06:05.012Z,43
2022-08-01T14:07:15.886Z,44
2022-08-01T14:08:21.154Z,40
2022-08-01T14:09:33.708Z,40
2022-08-01T14:10:36.286Z,41
2022-08-01T14:11:46.884Z,41
2022-08-01T14:12:49.602Z,41
2022-08-01T14:13:52.121Z,40
2022-08-01T14:14:55.113Z,40
2022-08-01T14:15:57.483Z,38
2022-08-01T14:17:00.561Z,38
2022-08-01T14:18:06.932Z,40
2022-08-01T14:19:09.634Z,40
2022-08-01T14:20:12.429Z,39
2022-08-01T14:21:15.131Z,40
2022-08-01T14:22:17.754Z,39
2022-08-01T14:23:20.701Z,40
2022-08-01T14:24:28.531Z,40
2022-08-01T14:26:13.118Z,40
2022-08-01T14:27:16.470Z,40
2022-08-01T14:28:19.097Z,40
2022-08-01T14:29:22.286Z,39
2022-08-01T14:31:06.277Z,40
2022-08-01T14:32:10.347Z,40
2022-08-01T14:33:13.251Z,39
2022-08-01T14:34:15.962Z,40
2022-08-01T14:35:18.526Z,41
2022-08-01T14:36:39.283Z,42
2022-08-01T14:37:47.212Z,41
2022-08-01T14:38:49.837Z,39
2022-08-01T14:39:55.965Z,40
2022-08-01T14:40:58.534Z,42
2022-08-01T14:42:01.846Z,41
2022-08-01T14:43:34.569Z,41
2022-08-01T14:44:50.518Z,41
2022-08-01T14:45:53.665Z,42
2022-08-01T14:46:59.761Z,43
2022-08-01T14:48:25.420Z,41
2022-08-01T14:49:29.208Z,42
2022-08-01T14:50:31.746Z,41
2022-08-01T14:51:34.480Z,41
2022-08-01T14:52:37.106Z,41
2022-08-01T14:53:43.545Z,41
2022-08-01T14:54:56.208Z,41
2022-08-01T14:55:58.440Z,42
2022-08-01T14:57:01.125Z,41
2022-08-01T14:58:03.358Z,40
2022-08-01T14:59:23.098Z,40
2022-08-01T15:00:26.991Z,40
2022-08-01T15:01:29.819Z,40
2022-08-01T15:02:32.253Z,39
2022-08-01T15:03:35.172Z,40
2022-08-01T15:04:37.869Z,40
2022-08-01T15:05:40.170Z,39
2022-08-01T15:06:42.839Z,41
2022-08-01T15:07:54.695Z,39
2022-08-01T15:08:57.197Z,39
2022-08-01T15:10:00.609Z,39
2022-08-01T15:11:03.508Z,39
2022-08-01T15:12:07.023Z,40
2022-08-01T15:13:11.460Z,39
2022-08-01T15:14:13.818Z,39
2022-08-01T15:15:17.008Z,39
2022-08-01T15:16:19.443Z,40
2022-08-01T15:17:24.488Z,39
2022-08-01T15:18:27.131Z,39
2022-08-01T15:19:29.766Z,40
2022-08-01T15:20:32.678Z,39